createdAt,value
2023-04-13T00:00:43.375Z,98393.13
2023-04-13T00:03:12.783Z,98386.75
2023-04-13T00:05:40.063Z,98359.06
2023-04-13T00:08:07.666Z,98368.81
2023-04-13T00:10:41.653Z,98411.38
2023-04-13T00:13:10.283Z,98410.72
2023-04-13T00:15:41.044Z,98417.78
2023-04-13T00:18:10.888Z,98414.16
2023-04-13T00:20:38.797Z,98398.34
2023-04-13T00:23:06.177Z,98395.38
2023-04-13T00:25:32.897Z,98386.66
2023-04-13T00:28:02.959Z,98399.38
2023-04-13T00:30:30.390Z,98408.22
2023-04-13T00:32:57.259Z,98369.53
2023-04-13T00:35:25.259Z,98355.16
2023-04-13T00:37:53.171Z,98364.50
2023-04-13T00:40:20.262Z,98390.44
2023-04-13T00:42:48.563Z,98422.50
2023-04-13T00:45:16.618Z,98423.25
2023-04-13T00:47:48.469Z,98375.31
2023-04-13T00:50:19.452Z,98363.69
2023-04-13T00:52:47.548Z,98385.25
2023-04-13T00:55:15.134Z,98428.56
2023-04-13T00:57:42.121Z,98377.75
2023-04-13T01:00:09.926Z,98405.06
2023-04-13T01:02:42.725Z,98405.41
2023-04-13T01:05:12.858Z,98414.81
2023-04-13T01:08:00.760Z,98395.47
2023-04-13T01:10:33.802Z,98449.84
2023-04-13T01:13:06.262Z,98445.28
2023-04-13T01:15:40.104Z,98437.28
2023-04-13T01:18:10.212Z,98436.94
2023-04-13T01:20:41.314Z,98462.88
2023-04-13T01:23:10.181Z,98428.00
2023-04-13T01:25:57.954Z,98460.53
2023-04-13T01:28:25.543Z,98421.03
2023-04-13T01:30:53.958Z,98472.16
2023-04-13T01:33:21.972Z,98458.50
2023-04-13T01:35:50.367Z,98429.03
2023-04-13T01:38:24.673Z,98431.72
2023-04-13T01:40:51.980Z,98394.34
2023-04-13T01:43:22.484Z,98410.81
2023-04-13T01:46:06.207Z,98437.56
2023-04-13T01:49:00.731Z,98479.78
2023-04-13T01:51:32.328Z,98478.22
2023-04-13T01:54:04.899Z,98474.84
2023-04-13T01:56:31.848Z,98425.97
2023-04-13T01:59:00.203Z,98407.47
2023-04-13T02:01:27.166Z,98434.91
2023-04-13T02:03:54.366Z,98488.72
2023-04-13T02:06:21.197Z,98440.19
2023-04-13T02:08:50.060Z,98441.88
2023-04-13T02:11:17.881Z,98411.66
2023-04-13T02:13:44.762Z,98456.44
2023-04-13T02:16:11.617Z,98428.66
2023-04-13T02:18:38.843Z,98465.94
2023-04-13T02:21:09.707Z,98491.41
2023-04-13T02:23:37.380Z,98438.63
2023-04-13T02:26:04.715Z,98464.81
2023-04-13T02:28:31.428Z,98450.41
2023-04-13T02:31:00.020Z,98503.28
2023-04-13T02:33:31.753Z,98482.56
2023-04-13T02:36:04.237Z,98471.16
2023-04-13T02:38:32.166Z,98494.00
2023-04-13T02:41:00.699Z,98468.34
2023-04-13T02:43:27.849Z,98496.44
2023-04-13T02:45:54.939Z,98456.06
2023-04-13T02:48:21.992Z,98440.66
2023-04-13T02:50:48.724Z,98505.75
2023-04-13T02:53:17.268Z,98506.94
2023-04-13T02:55:43.956Z,98479.31
2023-04-13T02:58:12.314Z,98489.25
2023-04-13T03:00:39.275Z,98481.84
2023-04-13T03:03:06.927Z,98449.56
2023-04-13T03:05:33.929Z,98513.47
2023-04-13T03:08:00.870Z,98513.81
2023-04-13T03:10:27.577Z,98483.41
2023-04-13T03:12:54.293Z,98470.22
2023-04-13T03:15:21.060Z,98470.22
2023-04-13T03:17:47.821Z,98528.63
2023-04-13T03:20:16.840Z,98532.53
2023-04-13T03:22:45.225Z,98490.38
2023-04-13T03:25:12.768Z,98459.81
2023-04-13T03:27:39.797Z,98530.66
2023-04-13T03:30:07.823Z,98498.38
2023-04-13T03:32:34.802Z,98467.94
2023-04-13T03:35:01.608Z,98536.44
2023-04-13T03:37:30.517Z,98501.19
2023-04-13T03:39:58.630Z,98499.31
2023-04-13T03:42:25.352Z,98510.88
2023-04-13T03:44:52.176Z,98517.81
2023-04-13T03:47:19.029Z,98536.59
2023-04-13T03:49:45.765Z,98511.38
2023-04-13T03:52:12.499Z,98501.19
2023-04-13T03:54:40.374Z,98469.81
2023-04-13T03:57:07.376Z,98524.97
2023-04-13T03:59:34.252Z,98503.41
2023-04-13T04:02:03.041Z,98510.66
2023-04-13T04:04:29.938Z,98517.31
2023-04-13T04:06:58.224Z,98511.84
2023-04-13T04:09:25.713Z,98499.16
2023-04-13T04:11:52.487Z,98508.00
2023-04-13T04:14:20.535Z,98530.25
2023-04-13T04:16:47.396Z,98525.03
2023-04-13T04:19:14.300Z,98531.75
2023-04-13T04:21:47.194Z,98538.53
2023-04-13T04:24:23.667Z,98530.56
2023-04-13T04:26:50.705Z,98504.84
2023-04-13T04:29:22.068Z,98570.84
2023-04-13T04:31:53.755Z,98568.16
2023-04-13T04:34:20.832Z,98523.38
2023-04-13T04:36:52.018Z,98516.78
2023-04-13T04:39:26.737Z,98593.06
2023-04-13T04:41:55.274Z,98540.94
2023-04-13T04:44:25.529Z,98565.78
2023-04-13T04:46:53.045Z,98532.41
2023-04-13T04:49:21.905Z,98528.31
2023-04-13T04:51:49.667Z,98542.53
2023-04-13T04:54:17.337Z,98573.13
2023-04-13T04:56:45.763Z,98595.66
2023-04-13T04:59:13.087Z,98579.06
2023-04-13T05:01:40.403Z,98610.00
2023-04-13T05:04:07.397Z,98544.63
2023-04-13T05:06:34.436Z,98585.34
2023-04-13T05:09:02.255Z,98597.38
2023-04-13T05:11:29.775Z,98565.72
2023-04-13T05:13:57.033Z,98556.56
2023-04-13T05:16:23.985Z,98613.88
2023-04-13T05:18:51.435Z,98576.94
2023-04-13T05:21:18.857Z,98589.06
2023-04-13T05:23:45.532Z,98573.59
2023-04-13T05:26:12.960Z,98571.72
2023-04-13T05:28:39.860Z,98579.06
2023-04-13T05:31:09.112Z,98566.03
2023-04-13T05:33:36.129Z,98567.78
2023-04-13T05:36:04.807Z,98614.16
2023-04-13T05:38:31.910Z,98624.00
2023-04-13T05:40:58.876Z,98560.22
2023-04-13T05:43:26.864Z,98627.75
2023-04-13T05:45:53.710Z,98598.41
2023-04-13T05:48:20.378Z,98579.03
2023-04-13T05:50:47.704Z,98603.63
2023-04-13T05:53:14.360Z,98581.44
2023-04-13T05:55:44.182Z,98611.13
2023-04-13T05:58:11.857Z,98599.00
2023-04-13T06:00:38.986Z,98577.25
2023-04-13T06:03:07.457Z,98576.13
2023-04-13T06:05:36.754Z,98595.84
2023-04-13T06:08:03.779Z,98622.63
2023-04-13T06:10:30.808Z,98648.16
2023-04-13T06:12:57.654Z,98626.75
2023-04-13T06:15:24.869Z,98653.16
2023-04-13T06:17:53.421Z,98608.75
2023-04-13T06:20:21.617Z,98645.25
2023-04-13T06:22:48.785Z,98641.53
2023-04-13T06:25:16.549Z,98633.88
2023-04-13T06:27:44.284Z,98606.31
2023-04-13T06:30:12.309Z,98655.66
2023-04-13T06:32:39.331Z,98653.06
2023-04-13T06:35:06.560Z,98600.44
2023-04-13T06:37:36.447Z,98599.69
2023-04-13T06:40:12.727Z,98638.72
2023-04-13T06:42:41.446Z,98635.56
2023-04-13T06:45:12.227Z,98657.31
2023-04-13T06:47:41.302Z,98632.75
2023-04-13T06:50:09.534Z,98658.59
2023-04-13T06:52:37.026Z,98625.56
2023-04-13T06:55:04.802Z,98690.22
2023-04-13T06:57:31.523Z,98665.53
2023-04-13T06:59:58.547Z,98672.84
2023-04-13T07:02:26.769Z,98661.44
2023-04-13T07:04:53.611Z,98632.03
2023-04-13T07:07:21.123Z,98703.81
2023-04-13T07:09:47.801Z,98694.59
2023-04-13T07:12:14.511Z,98679.72
2023-04-13T07:14:41.705Z,98680.84
2023-04-13T07:17:09.009Z,98696.66
2023-04-13T07:19:36.860Z,98712.13
2023-04-13T07:22:04.946Z,98670.91
2023-04-13T07:24:34.227Z,98710.25
2023-04-13T07:27:01.472Z,98668.84
2023-04-13T07:29:28.480Z,98682.06
2023-04-13T07:32:06.247Z,98736.41
2023-04-13T07:34:32.907Z,98668.84
2023-04-13T07:36:59.552Z,98705.66
2023-04-13T07:39:26.504Z,98729.81
2023-04-13T07:41:53.173Z,98680.88
2023-04-13T07:44:19.889Z,98730.78
2023-04-13T07:46:46.775Z,98669.59
2023-04-13T07:49:13.540Z,98700.22
2023-04-13T07:51:40.188Z,98752.19
2023-04-13T07:54:06.888Z,98716.06
2023-04-13T07:56:36.278Z,98739.94
2023-04-13T07:59:03.747Z,98711.69
2023-04-13T08:01:31.147Z,98702.25
2023-04-13T08:03:58.031Z,98767.50
2023-04-13T08:06:25.069Z,98741.03
2023-04-13T08:08:53.360Z,98728.72
2023-04-13T08:11:20.204Z,98726.91
2023-04-13T08:13:46.950Z,98760.72
2023-04-13T08:16:15.487Z,98732.19
2023-04-13T08:18:42.551Z,98735.63
2023-04-13T08:21:13.191Z,98758.28
2023-04-13T08:23:41.830Z,98764.22
2023-04-13T08:26:16.788Z,98776.47
2023-04-13T08:28:43.548Z,98774.84
2023-04-13T08:31:10.383Z,98730.84
2023-04-13T08:33:37.411Z,98720.25
2023-04-13T08:36:04.773Z,98783.84
2023-04-13T08:38:34.161Z,98718.78
2023-04-13T08:41:03.776Z,98799.78
2023-04-13T08:43:34.238Z,98772.88
2023-04-13T08:46:01.504Z,98730.53
2023-04-13T08:48:32.116Z,98784.41
2023-04-13T08:51:06.092Z,98743.31
2023-04-13T08:53:32.930Z,98787.75
2023-04-13T08:56:02.172Z,98784.50
2023-04-13T08:58:34.030Z,98833.88
2023-04-13T09:01:00.971Z,98759.06
2023-04-13T09:03:34.175Z,98822.34
2023-04-13T09:06:10.935Z,98821.81
2023-04-13T09:08:38.433Z,98799.91
2023-04-13T09:11:05.542Z,98821.38
2023-04-13T09:13:32.231Z,98837.09
2023-04-13T09:15:58.954Z,98826.09
2023-04-13T09:18:25.679Z,98817.25
2023-04-13T09:21:00.058Z,98842.44
2023-04-13T09:23:26.800Z,98839.59
2023-04-13T09:26:11.781Z,98786.38
2023-04-13T09:28:48.685Z,98800.78
2023-04-13T09:31:16.472Z,98858.13
2023-04-13T09:33:51.333Z,98832.84
2023-04-13T09:36:20.735Z,98812.53
2023-04-13T09:38:56.133Z,98817.22
2023-04-13T09:41:32.820Z,98870.34
2023-04-13T09:44:01.209Z,98845.53
2023-04-13T09:46:28.175Z,98838.03
2023-04-13T09:49:02.821Z,98875.97
2023-04-13T09:51:40.022Z,98843.34
2023-04-13T09:54:07.390Z,98858.44
2023-04-13T09:56:47.913Z,98839.00
2023-04-13T09:59:15.088Z,98877.84
2023-04-13T10:01:41.983Z,98852.75
2023-04-13T10:04:09.082Z,98842.09
2023-04-13T10:06:40.385Z,98869.63
2023-04-13T10:09:08.085Z,98854.56
2023-04-13T10:11:39.862Z,98878.09
2023-04-13T10:14:12.218Z,98887.13
2023-04-13T10:17:05.891Z,98911.56
2023-04-13T10:19:35.871Z,98918.66
2023-04-13T10:22:08.899Z,98896.41
2023-04-13T10:24:37.013Z,98856.47
2023-04-13T10:27:16.538Z,98902.66
2023-04-13T10:29:43.420Z,98873.38
2023-04-13T10:32:28.660Z,98911.31
2023-04-13T10:34:56.076Z,98867.56
2023-04-13T10:37:31.665Z,98892.31
2023-04-13T10:40:07.071Z,98849.31
2023-04-13T10:45:28.654Z,98915.44
2023-04-13T10:47:56.471Z,98895.88
2023-04-13T10:50:24.811Z,98919.31
2023-04-13T10:53:00.977Z,98937.50
2023-04-13T10:55:28.082Z,98887.78
2023-04-13T10:57:56.558Z,98877.75
2023-04-13T11:00:34.796Z,98887.22
2023-04-13T11:03:11.545Z,98894.25
2023-04-13T11:05:38.672Z,98861.22
2023-04-13T11:08:05.995Z,98903.56
2023-04-13T11:10:32.770Z,98921.66
2023-04-13T11:12:59.589Z,98886.84
2023-04-13T11:15:30.656Z,98900.84
2023-04-13T11:17:59.724Z,98915.50
2023-04-13T11:20:32.561Z,98941.34
2023-04-13T11:23:00.180Z,98925.97
2023-04-13T11:25:28.109Z,98927.19
2023-04-13T11:27:59.576Z,98935.69
2023-04-13T11:30:27.205Z,98892.97
2023-04-13T11:32:55.198Z,98898.41
2023-04-13T11:35:23.596Z,98916.19
2023-04-13T11:37:53.097Z,98950.38
2023-04-13T11:40:27.607Z,98916.09
2023-04-13T11:42:58.888Z,98893.25
2023-04-13T11:45:28.845Z,98921.78
2023-04-13T11:47:57.212Z,98970.19
2023-04-13T11:50:25.964Z,98933.91
2023-04-13T11:52:57.434Z,98961.72
2023-04-13T11:55:25.310Z,98925.72
2023-04-13T11:57:54.130Z,98913.56
2023-04-13T12:00:27.246Z,98970.44
2023-04-13T12:05:30.034Z,98938.00
2023-04-13T12:07:58.919Z,98952.13
2023-04-13T12:10:38.356Z,98963.94
2023-04-13T12:16:04.399Z,98959.91
2023-04-13T12:18:46.991Z,98938.25
2023-04-13T12:21:19.978Z,98929.00
2023-04-13T12:23:59.488Z,98972.28
2023-04-13T12:29:08.623Z,98928.78
2023-04-13T12:31:39.986Z,98955.44
2023-04-13T12:34:08.127Z,98981.78
2023-04-13T12:36:36.724Z,98951.47
2023-04-13T12:39:04.774Z,98983.50
2023-04-13T12:41:32.435Z,98977.19
2023-04-13T12:43:59.157Z,98919.16
2023-04-13T12:46:26.729Z,98952.34
2023-04-13T12:48:54.148Z,98956.41
2023-04-13T12:51:21.334Z,98980.63
2023-04-13T12:53:48.518Z,98978.94
2023-04-13T12:56:16.066Z,98920.66
2023-04-13T12:58:42.884Z,98961.63
2023-04-13T13:01:09.850Z,98969.34
2023-04-13T13:03:39.514Z,98978.50
2023-04-13T13:06:08.438Z,98943.19
2023-04-13T13:08:38.612Z,98933.28
2023-04-13T13:11:08.454Z,98916.09
2023-04-13T13:13:35.701Z,98954.63
2023-04-13T13:16:02.477Z,98974.16
2023-04-13T13:18:38.886Z,98966.31
2023-04-13T13:21:13.809Z,98937.16
2023-04-13T13:23:40.738Z,98986.41
2023-04-13T13:26:23.228Z,98954.84
2023-04-13T13:28:52.399Z,98981.38
2023-04-13T13:31:19.626Z,98966.38
2023-04-13T13:33:46.823Z,98968.44
2023-04-13T13:36:14.679Z,98945.63
2023-04-13T13:38:43.092Z,98964.38
2023-04-13T13:41:10.140Z,98969.53
2023-04-13T13:43:38.056Z,98938.06
2023-04-13T13:46:08.068Z,98950.03
2023-04-13T13:48:34.910Z,98936.94
2023-04-13T13:51:02.201Z,98904.75
2023-04-13T13:53:28.967Z,98997.59
2023-04-13T13:55:56.427Z,98960.09
2023-04-13T13:58:23.197Z,98934.19
2023-04-13T14:00:50.984Z,98910.53
2023-04-13T14:03:17.915Z,98969.72
2023-04-13T14:05:44.857Z,98987.00
2023-04-13T14:08:12.008Z,98973.53
2023-04-13T14:10:38.939Z,98952.81
2023-04-13T14:13:06.304Z,98940.56
2023-04-13T14:15:33.229Z,98937.94
2023-04-13T14:18:09.186Z,98922.72
2023-04-13T14:20:41.037Z,98965.84
2023-04-13T14:23:09.571Z,98985.88
2023-04-13T14:25:37.124Z,98929.66
2023-04-13T14:28:04.127Z,98948.81
2023-04-13T14:30:30.918Z,98960.41
2023-04-13T14:32:57.687Z,98955.44
2023-04-13T14:35:32.830Z,98912.91
2023-04-13T14:38:01.146Z,98974.31
2023-04-13T14:40:28.573Z,98943.47
2023-04-13T14:42:55.350Z,98923.88
2023-04-13T14:45:22.231Z,98874.16
2023-04-13T14:47:49.402Z,98932.53
2023-04-13T14:50:16.770Z,98924.38
2023-04-13T14:52:44.773Z,98947.69
2023-04-13T14:55:12.248Z,98949.41
2023-04-13T14:57:39.602Z,98927.84
2023-04-13T15:00:26.357Z,98948.06
2023-04-13T15:02:53.678Z,98952.94
2023-04-13T15:05:21.018Z,98954.84
2023-04-13T15:07:48.856Z,98986.38
2023-04-13T15:10:16.443Z,98939.25
2023-04-13T15:12:43.452Z,98980.53
2023-04-13T15:15:10.980Z,98990.91
2023-04-13T15:17:37.884Z,98980.66
2023-04-13T15:20:07.835Z,98906.31
2023-04-13T15:22:36.337Z,98954.94
2023-04-13T15:25:03.296Z,98989.84
2023-04-13T15:27:30.214Z,98956.19
2023-04-13T15:30:00.545Z,98968.75
2023-04-13T15:32:28.701Z,98979.69
2023-04-13T15:34:56.810Z,98996.13
2023-04-13T15:37:24.367Z,99025.03
2023-04-13T15:39:51.141Z,98989.53
2023-04-13T15:42:19.349Z,99008.19
2023-04-13T15:44:46.261Z,98940.47
2023-04-13T15:47:13.061Z,98964.69
2023-04-13T15:49:39.897Z,99010.75
2023-04-13T15:52:06.845Z,99020.09
2023-04-13T15:54:33.673Z,98984.47
2023-04-13T15:57:00.566Z,98977.13
2023-04-13T15:59:27.467Z,99001.66
2023-04-13T16:01:54.338Z,99006.38
2023-04-13T16:04:21.455Z,99016.28
2023-04-13T16:07:05.001Z,98967.06
2023-04-13T16:09:36.731Z,98971.03
2023-04-13T16:12:08.421Z,98977.75
2023-04-13T16:14:45.362Z,99036.25
2023-04-13T16:17:15.065Z,98984.06
2023-04-13T16:19:46.877Z,99016.28
2023-04-13T16:22:14.029Z,98966.19
2023-04-13T16:24:41.378Z,98963.41
2023-04-13T16:27:08.823Z,98971.91
2023-04-13T16:29:35.702Z,98972.78
2023-04-13T16:32:02.834Z,99011.88
2023-04-13T16:34:29.875Z,99002.66
2023-04-13T16:36:57.613Z,99007.84
2023-04-13T16:39:24.406Z,98995.94
2023-04-13T16:41:51.251Z,99002.78
2023-04-13T16:44:18.140Z,98984.94
2023-04-13T16:46:44.985Z,99000.88
2023-04-13T16:49:11.852Z,99036.59
2023-04-13T16:51:38.653Z,98998.88
2023-04-13T16:54:11.696Z,99006.53
2023-04-13T16:56:38.545Z,99014.38
2023-04-13T16:59:05.511Z,99024.09
2023-04-13T17:01:32.369Z,99022.59
2023-04-13T17:03:59.208Z,98976.22
2023-04-13T17:06:27.323Z,98907.22
2023-04-13T17:08:54.268Z,99018.13
2023-04-13T17:11:21.206Z,99053.31
2023-04-13T17:13:48.011Z,98981.84
2023-04-13T17:16:14.771Z,98989.50
2023-04-13T17:18:41.647Z,98972.97
2023-04-13T17:21:08.370Z,99014.97
2023-04-13T17:23:35.121Z,99002.63
2023-04-13T17:26:03.702Z,99018.13
2023-04-13T17:28:30.733Z,99028.88
2023-04-13T17:30:57.427Z,99013.09
2023-04-13T17:33:24.636Z,99022.78
2023-04-13T17:35:55.246Z,99037.19
2023-04-13T17:38:22.124Z,99006.38
2023-04-13T17:40:50.887Z,99011.44
2023-04-13T17:43:20.155Z,99039.22
2023-04-13T17:45:47.009Z,99000.03
2023-04-13T17:48:13.749Z,99028.66
2023-04-13T17:50:40.535Z,99052.50
2023-04-13T17:53:07.322Z,99023.91
2023-04-13T17:55:37.242Z,99049.31
2023-04-13T17:58:04.395Z,99031.44
2023-04-13T18:00:31.201Z,98999.88
2023-04-13T18:02:58.469Z,99083.53
2023-04-13T18:05:25.920Z,99037.59
2023-04-13T18:07:52.783Z,99054.66
2023-04-13T18:10:19.573Z,99041.16
2023-04-13T18:12:46.416Z,99070.34
2023-04-13T18:15:13.314Z,99091.25
2023-04-13T18:17:40.101Z,99037.88
2023-04-13T18:20:07.499Z,99025.81
2023-04-13T18:22:34.995Z,99089.56
2023-04-13T18:25:01.755Z,99061.88
2023-04-13T18:27:28.503Z,99065.13
2023-04-13T18:29:55.780Z,99006.13
2023-04-13T18:32:23.433Z,99018.13
2023-04-13T18:34:50.524Z,99012.94
2023-04-13T18:37:17.296Z,99043.94
2023-04-13T18:39:45.046Z,99018.47
2023-04-13T18:42:12.014Z,99099.28
2023-04-13T18:44:38.767Z,99045.41
2023-04-13T18:47:05.689Z,99036.06
2023-04-13T18:49:32.578Z,99031.88
2023-04-13T18:51:59.538Z,99040.53
2023-04-13T18:54:26.305Z,99027.84
2023-04-13T18:56:53.044Z,99004.13
2023-04-13T18:59:19.722Z,99042.34
2023-04-13T19:01:47.003Z,99023.03
2023-04-13T19:04:14.049Z,99063.31
2023-04-13T19:06:41.249Z,99068.28
2023-04-13T19:09:08.407Z,99063.69
2023-04-13T19:11:47.079Z,99096.88
2023-04-13T19:14:13.848Z,99095.72
2023-04-13T19:16:41.672Z,99014.38
2023-04-13T19:19:09.217Z,99020.03
2023-04-13T19:21:36.013Z,99091.34
2023-04-13T19:24:02.829Z,99092.91
2023-04-13T19:26:29.639Z,99030.47
2023-04-13T19:28:56.398Z,99021.09
2023-04-13T19:31:23.884Z,99089.09
2023-04-13T19:33:51.588Z,99092.47
2023-04-13T19:36:18.362Z,99047.47
2023-04-13T19:38:45.439Z,99065.03
2023-04-13T19:41:13.455Z,99106.81
2023-04-13T19:43:40.193Z,99039.34
2023-04-13T19:46:06.884Z,99026.75
2023-04-13T19:48:33.677Z,99102.88
2023-04-13T19:51:00.477Z,99033.75
2023-04-13T19:53:27.181Z,99074.13
2023-04-13T19:55:53.970Z,99032.13
2023-04-13T19:58:20.694Z,99028.84
2023-04-13T20:00:47.581Z,99118.38
2023-04-13T20:03:14.456Z,99042.56
2023-04-13T20:05:41.321Z,99100.97
2023-04-13T20:08:08.037Z,99057.28
2023-04-13T20:10:34.938Z,99057.28
2023-04-13T20:13:01.679Z,99064.34
2023-04-13T20:15:32.966Z,99087.53
2023-04-13T20:17:59.837Z,99112.72
2023-04-13T20:20:28.590Z,99015.63
2023-04-13T20:22:55.489Z,99045.13
2023-04-13T20:25:22.307Z,99040.66
2023-04-13T20:27:48.960Z,99059.97
2023-04-13T20:30:15.820Z,99045.66
2023-04-13T20:32:42.591Z,99047.88
2023-04-13T20:35:10.171Z,99060.59
2023-04-13T20:37:37.063Z,99093.69
2023-04-13T20:40:07.095Z,99083.72
2023-04-13T20:42:33.979Z,99075.81
2023-04-13T20:45:01.853Z,99087.94
2023-04-13T20:47:31.557Z,99098.03
2023-04-13T20:50:00.265Z,99059.28
2023-04-13T20:52:29.934Z,99112.44
2023-04-13T20:54:57.149Z,99127.75
2023-04-13T20:57:23.920Z,99072.25
2023-04-13T20:59:52.197Z,99124.84
2023-04-13T21:02:19.120Z,99068.47
2023-04-13T21:04:46.578Z,99101.94
2023-04-13T21:07:15.477Z,99091.59
2023-04-13T21:09:42.373Z,99123.13
2023-04-13T21:12:09.041Z,99079.22
2023-04-13T21:14:35.827Z,99109.03
2023-04-13T21:17:02.526Z,99117.84
2023-04-13T21:19:29.266Z,99093.28
2023-04-13T21:21:57.597Z,99101.19
2023-04-13T21:24:24.712Z,99084.28
2023-04-13T21:26:51.557Z,99110.22
2023-04-13T21:29:20.266Z,99116.19
2023-04-13T21:31:47.865Z,99093.72
2023-04-13T21:34:16.125Z,99092.63
2023-04-13T21:39:14.114Z,99096.38
2023-04-13T21:41:41.684Z,99102.50
2023-04-13T21:44:16.191Z,99081.25
2023-04-13T21:46:53.357Z,99102.44
2023-04-13T21:49:20.107Z,99138.53
2023-04-13T21:51:47.062Z,99086.34
2023-04-13T21:54:13.835Z,99085.69
2023-04-13T21:56:40.819Z,99111.75
2023-04-13T21:59:07.714Z,99098.91
2023-04-13T22:01:34.514Z,99101.44
2023-04-13T22:04:01.552Z,99047.84
2023-04-13T22:06:29.565Z,99063.09
2023-04-13T22:08:56.455Z,99064.16
2023-04-13T22:11:23.704Z,99103.28
2023-04-13T22:13:50.495Z,99082.94
2023-04-13T22:16:17.296Z,99079.34
2023-04-13T22:18:44.307Z,99082.94
2023-04-13T22:21:11.185Z,99073.84
2023-04-13T22:23:38.815Z,99084.03
2023-04-13T22:26:05.630Z,99101.63
2023-04-13T22:28:33.166Z,99079.34
2023-04-13T22:31:09.003Z,99056.69
2023-04-13T22:33:36.506Z,99097.38
2023-04-13T22:36:07.366Z,99087.91
2023-04-13T22:38:34.233Z,99098.75
2023-04-13T22:41:06.757Z,99092.03
2023-04-13T22:43:33.508Z,99078.06
2023-04-13T22:46:01.057Z,99072.84
2023-04-13T22:48:29.063Z,99129.69
2023-04-13T22:50:57.222Z,99065.03
2023-04-13T22:53:24.260Z,99104.19
2023-04-13T22:55:51.287Z,99073.00
2023-04-13T22:58:18.072Z,99094.66
2023-04-13T23:00:44.845Z,99103.66
2023-04-13T23:03:15.426Z,99122.91
2023-04-13T23:05:42.299Z,99055.66
2023-04-13T23:08:09.215Z,99038.16
2023-04-13T23:10:36.020Z,99081.63
2023-04-13T23:13:02.855Z,99088.34
2023-04-13T23:15:29.788Z,99054.09
2023-04-13T23:17:56.824Z,99129.00
2023-04-13T23:20:24.035Z,99082.66
2023-04-13T23:22:51.139Z,99072.06
2023-04-13T23:25:18.041Z,99087.81
2023-04-13T23:27:45.026Z,99079.41
2023-04-13T23:30:12.462Z,99120.59
2023-04-13T23:32:39.353Z,99080.16
2023-04-13T23:35:06.787Z,99086.28
2023-04-13T23:37:33.531Z,99084.19
2023-04-13T23:40:00.628Z,99053.56
2023-04-13T23:42:28.171Z,99092.69
2023-04-13T23:44:55.297Z,99111.63
2023-04-13T23:47:22.483Z,99085.03
2023-04-13T23:49:50.966Z,99113.31
2023-04-13T23:52:18.046Z,99123.03
2023-04-13T23:54:44.817Z,99097.81
2023-04-13T23:57:12.921Z,99073.81
2023-04-13T23:59:40.124Z,99090.06
